EDLW/DTM METAR and TAF weather

Enter ICAO airport designator
Station Type Date Time Source
EDLW METAR 2019/04/19 22:50 UTC NOAA

EDLW 192250Z AUTO 07004KT 9999 // NCD 12/04 Q1029


Station Type Date Time Source
EDLW Decoded METAR 2019/04/19 22:50 UTC NOAA

Dortmund / Wickede, Germany (EDLW) 51-31N 007-37E
Apr 19, 2019 - 06:50 PM EDT / 2019.04.19 2250 UTC
Wind: from the ENE (070 degrees) at 5 MPH (4 KT):0
Visibility: greater than 7 mile(s):0
Temperature: 53 F (12 C)
Dew Point: 39 F (4 C)
Relative Humidity: 57%
Pressure (altimeter): 30.39 in. Hg (1029 hPa)
ob: EDLW 192250Z AUTO 07004KT 9999 // NCD 12/04 Q1029
cycle: 23

Station Type Date Time Source
EDLW TAF 2019/04/19 20:57 UTC NOAA

TAF
AMD TAF
AMD EDLW 192050Z 1920/2018 CNL

Example: see airport list